sensor_id;sensor_type;location;lat;lon;timestamp;temperature;humidity
19799;DHT22;10059;59.850;10.454;2023-05-14T00:01:33;9.00;99.90
19799;DHT22;10059;59.850;10.454;2023-05-14T00:04:00;8.90;99.90
19799;DHT22;10059;59.850;10.454;2023-05-14T00:06:27;8.90;99.90
19799;DHT22;10059;59.850;10.454;2023-05-14T00:08:55;8.80;99.90
19799;DHT22;10059;59.850;10.454;2023-05-14T00:11:22;8.80;99.90
19799;DHT22;10059;59.850;10.454;2023-05-14T00:13:49;8.70;99.90
19799;DHT22;10059;59.850;10.454;2023-05-14T00:16:16;8.70;99.90
19799;DHT22;10059;59.850;10.454;2023-05-14T00:18:43;8.70;99.90
19799;DHT22;10059;59.850;10.454;2023-05-14T00:21:09;8.60;99.90
19799;DHT22;10059;59.850;10.454;2023-05-14T00:23:37;8.60;99.90
19799;DHT22;10059;59.850;10.454;2023-05-14T00:26:05;8.50;99.90
19799;DHT22;10059;59.850;10.454;2023-05-14T00:28:32;8.40;99.90
19799;DHT22;10059;59.850;10.454;2023-05-14T00:30:59;8.40;99.90
19799;DHT22;10059;59.850;10.454;2023-05-14T00:33:26;8.40;99.90
19799;DHT22;10059;59.850;10.454;2023-05-14T00:35:53;8.40;99.90
19799;DHT22;10059;59.850;10.454;2023-05-14T00:38:19;8.30;99.90
19799;DHT22;10059;59.850;10.454;2023-05-14T00:40:48;8.30;99.90
19799;DHT22;10059;59.850;10.454;2023-05-14T00:43:18;8.30;99.90
19799;DHT22;10059;59.850;10.454;2023-05-14T00:45:45;8.20;99.90
19799;DHT22;10059;59.850;10.454;2023-05-14T00:48:13;8.30;99.90
19799;DHT22;10059;59.850;10.454;2023-05-14T00:50:40;8.30;99.90
19799;DHT22;10059;59.850;10.454;2023-05-14T00:53:07;8.30;99.90
19799;DHT22;10059;59.850;10.454;2023-05-14T00:55:35;8.20;99.90
19799;DHT22;10059;59.850;10.454;2023-05-14T00:58:04;8.30;99.90
19799;DHT22;10059;59.850;10.454;2023-05-14T01:00:34;8.30;99.90
19799;DHT22;10059;59.850;10.454;2023-05-14T01:03:03;8.20;99.90
19799;DHT22;10059;59.850;10.454;2023-05-14T01:05:35;8.10;99.90
19799;DHT22;10059;59.850;10.454;2023-05-14T01:08:11;8.10;99.90
19799;DHT22;10059;59.850;10.454;2023-05-14T01:10:48;8.20;99.90
19799;DHT22;10059;59.850;10.454;2023-05-14T01:13:21;8.10;99.90
19799;DHT22;10059;59.850;10.454;2023-05-14T01:15:53;8.10;99.90
19799;DHT22;10059;59.850;10.454;2023-05-14T01:18:21;8.00;99.90
19799;DHT22;10059;59.850;10.454;2023-05-14T01:20:49;8.00;99.90
19799;DHT22;10059;59.850;10.454;2023-05-14T01:23:18;8.00;99.90
19799;DHT22;10059;59.850;10.454;2023-05-14T01:25:45;7.90;99.90
19799;DHT22;10059;59.850;10.454;2023-05-14T01:28:15;8.00;99.90
19799;DHT22;10059;59.850;10.454;2023-05-14T01:30:47;8.00;99.90
19799;DHT22;10059;59.850;10.454;2023-05-14T01:33:16;7.90;99.90
19799;DHT22;10059;59.850;10.454;2023-05-14T01:35:44;8.00;99.90
19799;DHT22;10059;59.850;10.454;2023-05-14T01:38:13;8.00;99.90
19799;DHT22;10059;59.850;10.454;2023-05-14T01:40:42;7.90;99.90
19799;DHT22;10059;59.850;10.454;2023-05-14T01:43:10;8.00;99.90
19799;DHT22;10059;59.850;10.454;2023-05-14T01:45:37;8.10;99.90
19799;DHT22;10059;59.850;10.454;2023-05-14T01:48:04;8.00;99.90
19799;DHT22;10059;59.850;10.454;2023-05-14T01:50:31;8.10;99.90
19799;DHT22;10059;59.850;10.454;2023-05-14T01:52:58;8.10;99.90
19799;DHT22;10059;59.850;10.454;2023-05-14T01:55:25;8.00;99.90
19799;DHT22;10059;59.850;10.454;2023-05-14T01:57:53;8.00;99.90
19799;DHT22;10059;59.850;10.454;2023-05-14T02:00:22;8.10;99.90
19799;DHT22;10059;59.850;10.454;2023-05-14T02:02:49;8.10;99.90
19799;DHT22;10059;59.850;10.454;2023-05-14T02:05:16;8.10;99.90
19799;DHT22;10059;59.850;10.454;2023-05-14T02:07:43;8.00;99.90
19799;DHT22;10059;59.850;10.454;2023-05-14T02:10:10;8.00;99.90
19799;DHT22;10059;59.850;10.454;2023-05-14T02:12:37;7.80;99.90
19799;DHT22;10059;59.850;10.454;2023-05-14T02:15:06;7.80;99.90
19799;DHT22;10059;59.850;10.454;2023-05-14T02:17:35;7.80;99.90
19799;DHT22;10059;59.850;10.454;2023-05-14T02:20:02;7.80;99.90
19799;DHT22;10059;59.850;10.454;2023-05-14T02:22:29;7.80;99.90
19799;DHT22;10059;59.850;10.454;2023-05-14T02:24:56;7.80;99.90
19799;DHT22;10059;59.850;10.454;2023-05-14T02:27:23;7.80;99.90
19799;DHT22;10059;59.850;10.454;2023-05-14T02:29:50;7.80;99.90
19799;DHT22;10059;59.850;10.454;2023-05-14T02:32:18;7.80;99.90
19799;DHT22;10059;59.850;10.454;2023-05-14T02:34:45;7.70;99.90
19799;DHT22;10059;59.850;10.454;2023-05-14T02:37:11;7.70;99.90
19799;DHT22;10059;59.850;10.454;2023-05-14T02:39:38;7.60;99.90
19799;DHT22;10059;59.850;10.454;2023-05-14T02:42:05;7.70;99.90
19799;DHT22;10059;59.850;10.454;2023-05-14T02:44:32;7.70;99.90
19799;DHT22;10059;59.850;10.454;2023-05-14T02:46:59;7.60;99.90
19799;DHT22;10059;59.850;10.454;2023-05-14T02:49:27;7.50;99.90
19799;DHT22;10059;59.850;10.454;2023-05-14T02:51:54;7.50;99.90
19799;DHT22;10059;59.850;10.454;2023-05-14T02:54:21;7.50;99.90
19799;DHT22;10059;59.850;10.454;2023-05-14T02:56:48;7.50;99.90
19799;DHT22;10059;59.850;10.454;2023-05-14T02:59:15;7.40;99.90
19799;DHT22;10059;59.850;10.454;2023-05-14T03:01:41;7.40;99.90
19799;DHT22;10059;59.850;10.454;2023-05-14T03:04:08;7.30;99.90
19799;DHT22;10059;59.850;10.454;2023-05-14T03:06:36;7.40;99.90
19799;DHT22;10059;59.850;10.454;2023-05-14T03:09:03;7.50;99.90
19799;DHT22;10059;59.850;10.454;2023-05-14T03:11:30;7.60;99.90
19799;DHT22;10059;59.850;10.454;2023-05-14T03:13:57;7.70;99.90
19799;DHT22;10059;59.850;10.454;2023-05-14T03:16:24;7.60;99.90
19799;DHT22;10059;59.850;10.454;2023-05-14T03:18:51;7.50;99.90
19799;DHT22;10059;59.850;10.454;2023-05-14T03:21:17;7.50;99.90
19799;DHT22;10059;59.850;10.454;2023-05-14T03:23:45;7.50;99.90
19799;DHT22;10059;59.850;10.454;2023-05-14T03:26:12;7.40;99.90
19799;DHT22;10059;59.850;10.454;2023-05-14T03:28:39;7.40;99.90
19799;DHT22;10059;59.850;10.454;2023-05-14T03:31:06;7.40;99.90
19799;DHT22;10059;59.850;10.454;2023-05-14T03:33:33;7.40;99.90
19799;DHT22;10059;59.850;10.454;2023-05-14T03:36:00;7.50;99.90
19799;DHT22;10059;59.850;10.454;2023-05-14T03:38:27;7.40;99.90
19799;DHT22;10059;59.850;10.454;2023-05-14T03:40:56;7.40;99.90
19799;DHT22;10059;59.850;10.454;2023-05-14T03:43:23;7.40;99.90
19799;DHT22;10059;59.850;10.454;2023-05-14T03:45:50;7.30;99.90
19799;DHT22;10059;59.850;10.454;2023-05-14T03:48:17;7.40;99.90
19799;DHT22;10059;59.850;10.454;2023-05-14T03:50:44;7.50;99.90
19799;DHT22;10059;59.850;10.454;2023-05-14T03:53:11;7.60;99.90
19799;DHT22;10059;59.850;10.454;2023-05-14T03:55:38;7.70;99.90
19799;DHT22;10059;59.850;10.454;2023-05-14T03:58:06;7.90;99.90
19799;DHT22;10059;59.850;10.454;2023-05-14T04:00:38;8.00;99.90
19799;DHT22;10059;59.850;10.454;2023-05-14T04:03:05;8.20;99.90
19799;DHT22;10059;59.850;10.454;2023-05-14T04:05:32;8.20;99.90
19799;DHT22;10059;59.850;10.454;2023-05-14T04:07:59;8.40;99.90
19799;DHT22;10059;59.850;10.454;2023-05-14T04:10:26;8.70;99.90
19799;DHT22;10059;59.850;10.454;2023-05-14T04:12:53;8.90;99.90
19799;DHT22;10059;59.850;10.454;2023-05-14T04:15:22;9.10;99.90
19799;DHT22;10059;59.850;10.454;2023-05-14T04:17:49;9.20;99.90
19799;DHT22;10059;59.850;10.454;2023-05-14T04:20:16;9.30;99.90
19799;DHT22;10059;59.850;10.454;2023-05-14T04:22:43;9.40;99.90
19799;DHT22;10059;59.850;10.454;2023-05-14T04:25:10;9.40;99.90
19799;DHT22;10059;59.850;10.454;2023-05-14T04:27:36;9.30;99.90
19799;DHT22;10059;59.850;10.454;2023-05-14T04:30:04;9.60;99.90
19799;DHT22;10059;59.850;10.454;2023-05-14T04:32:34;9.90;99.90
19799;DHT22;10059;59.850;10.454;2023-05-14T04:35:01;10.10;99.90
19799;DHT22;10059;59.850;10.454;2023-05-14T04:37:28;10.30;99.90
19799;DHT22;10059;59.850;10.454;2023-05-14T04:39:55;10.60;99.90
19799;DHT22;10059;59.850;10.454;2023-05-14T04:42:22;10.70;99.90
19799;DHT22;10059;59.850;10.454;2023-05-14T04:44:50;10.90;99.90
19799;DHT22;10059;59.850;10.454;2023-05-14T04:47:16;11.10;99.90
19799;DHT22;10059;59.850;10.454;2023-05-14T04:49:45;11.40;99.90
19799;DHT22;10059;59.850;10.454;2023-05-14T04:52:12;11.70;99.90
19799;DHT22;10059;59.850;10.454;2023-05-14T04:54:39;12.00;99.90
19799;DHT22;10059;59.850;10.454;2023-05-14T04:57:06;12.30;99.90
19799;DHT22;10059;59.850;10.454;2023-05-14T04:59:33;12.50;99.90
19799;DHT22;10059;59.850;10.454;2023-05-14T05:01:59;12.70;99.90
19799;DHT22;10059;59.850;10.454;2023-05-14T05:04:26;12.90;99.90
19799;DHT22;10059;59.850;10.454;2023-05-14T05:06:54;13.10;99.90
19799;DHT22;10059;59.850;10.454;2023-05-14T05:09:21;13.10;99.90
19799;DHT22;10059;59.850;10.454;2023-05-14T05:11:48;13.40;99.90
19799;DHT22;10059;59.850;10.454;2023-05-14T05:14:15;13.50;99.90
19799;DHT22;10059;59.850;10.454;2023-05-14T05:16:42;13.50;99.90
19799;DHT22;10059;59.850;10.454;2023-05-14T05:19:09;13.50;99.90
19799;DHT22;10059;59.850;10.454;2023-05-14T05:21:37;13.50;99.90
19799;DHT22;10059;59.850;10.454;2023-05-14T05:24:06;13.50;99.90
19799;DHT22;10059;59.850;10.454;2023-05-14T05:26:33;13.80;99.90
19799;DHT22;10059;59.850;10.454;2023-05-14T05:29:02;13.90;99.90
19799;DHT22;10059;59.850;10.454;2023-05-14T05:31:29;13.90;99.90
19799;DHT22;10059;59.850;10.454;2023-05-14T05:33:57;14.00;99.90
19799;DHT22;10059;59.850;10.454;2023-05-14T05:36:24;14.30;99.90
19799;DHT22;10059;59.850;10.454;2023-05-14T05:38:51;14.20;99.90
19799;DHT22;10059;59.850;10.454;2023-05-14T05:41:19;14.40;99.90
19799;DHT22;10059;59.850;10.454;2023-05-14T05:43:46;14.60;99.90
19799;DHT22;10059;59.850;10.454;2023-05-14T05:46:13;14.70;99.90
19799;DHT22;10059;59.850;10.454;2023-05-14T05:48:40;15.10;99.90
19799;DHT22;10059;59.850;10.454;2023-05-14T05:51:07;15.30;99.90
19799;DHT22;10059;59.850;10.454;2023-05-14T05:53:34;15.60;99.90
19799;DHT22;10059;59.850;10.454;2023-05-14T05:56:00;15.80;99.90
19799;DHT22;10059;59.850;10.454;2023-05-14T05:58:29;15.90;99.90
19799;DHT22;10059;59.850;10.454;2023-05-14T06:00:56;15.70;99.90
19799;DHT22;10059;59.850;10.454;2023-05-14T06:03:22;15.90;99.90
19799;DHT22;10059;59.850;10.454;2023-05-14T06:05:49;15.80;99.90
19799;DHT22;10059;59.850;10.454;2023-05-14T06:08:17;15.80;99.90
19799;DHT22;10059;59.850;10.454;2023-05-14T06:10:44;15.70;99.90
19799;DHT22;10059;59.850;10.454;2023-05-14T06:13:11;15.70;99.90
19799;DHT22;10059;59.850;10.454;2023-05-14T06:15:39;15.80;99.90
19799;DHT22;10059;59.850;10.454;2023-05-14T06:18:06;16.20;99.90
19799;DHT22;10059;59.850;10.454;2023-05-14T06:20:33;16.20;99.90
19799;DHT22;10059;59.850;10.454;2023-05-14T06:23:00;16.00;99.90
19799;DHT22;10059;59.850;10.454;2023-05-14T06:25:26;16.10;99.90
19799;DHT22;10059;59.850;10.454;2023-05-14T06:27:53;16.20;99.90
19799;DHT22;10059;59.850;10.454;2023-05-14T06:30:20;16.40;99.90
19799;DHT22;10059;59.850;10.454;2023-05-14T06:32:48;16.30;99.90
19799;DHT22;10059;59.850;10.454;2023-05-14T06:35:16;16.30;99.90
19799;DHT22;10059;59.850;10.454;2023-05-14T06:37:43;16.40;99.90
19799;DHT22;10059;59.850;10.454;2023-05-14T06:40:11;16.40;99.90
19799;DHT22;10059;59.850;10.454;2023-05-14T06:42:40;16.40;99.90
19799;DHT22;10059;59.850;10.454;2023-05-14T06:45:07;16.40;99.90
19799;DHT22;10059;59.850;10.454;2023-05-14T06:47:34;16.90;99.90
19799;DHT22;10059;59.850;10.454;2023-05-14T06:50:02;17.30;99.90
19799;DHT22;10059;59.850;10.454;2023-05-14T06:52:29;17.30;99.90
19799;DHT22;10059;59.850;10.454;2023-05-14T06:54:56;17.20;99.90
19799;DHT22;10059;59.850;10.454;2023-05-14T06:57:23;17.20;99.90
19799;DHT22;10059;59.850;10.454;2023-05-14T06:59:50;17.90;99.90
19799;DHT22;10059;59.850;10.454;2023-05-14T07:02:17;17.80;99.90
19799;DHT22;10059;59.850;10.454;2023-05-14T07:04:43;18.10;99.90
19799;DHT22;10059;59.850;10.454;2023-05-14T07:07:12;17.50;99.90
19799;DHT22;10059;59.850;10.454;2023-05-14T07:09:42;17.60;99.90
19799;DHT22;10059;59.850;10.454;2023-05-14T07:12:09;17.70;99.90
19799;DHT22;10059;59.850;10.454;2023-05-14T07:14:36;17.60;99.90
19799;DHT22;10059;59.850;10.454;2023-05-14T07:17:03;17.60;99.90
19799;DHT22;10059;59.850;10.454;2023-05-14T07:19:30;17.60;99.90
19799;DHT22;10059;59.850;10.454;2023-05-14T07:21:57;17.80;99.90
19799;DHT22;10059;59.850;10.454;2023-05-14T07:24:25;18.00;99.90
19799;DHT22;10059;59.850;10.454;2023-05-14T07:26:52;18.80;99.90
19799;DHT22;10059;59.850;10.454;2023-05-14T07:29:19;19.10;99.90
19799;DHT22;10059;59.850;10.454;2023-05-14T07:31:46;19.50;99.90
19799;DHT22;10059;59.850;10.454;2023-05-14T07:34:13;19.80;99.90
19799;DHT22;10059;59.850;10.454;2023-05-14T07:36:40;20.10;99.90
19799;DHT22;10059;59.850;10.454;2023-05-14T07:39:07;20.30;99.90
19799;DHT22;10059;59.850;10.454;2023-05-14T07:41:35;20.40;99.90
19799;DHT22;10059;59.850;10.454;2023-05-14T07:44:02;20.70;99.90
19799;DHT22;10059;59.850;10.454;2023-05-14T07:46:29;20.80;99.90
19799;DHT22;10059;59.850;10.454;2023-05-14T07:48:56;20.70;99.90
19799;DHT22;10059;59.850;10.454;2023-05-14T07:51:23;21.00;99.90
19799;DHT22;10059;59.850;10.454;2023-05-14T07:53:52;20.80;99.90
19799;DHT22;10059;59.850;10.454;2023-05-14T07:56:20;20.70;99.90
19799;DHT22;10059;59.850;10.454;2023-05-14T07:58:48;20.50;99.90
19799;DHT22;10059;59.850;10.454;2023-05-14T08:01:15;20.80;99.90
19799;DHT22;10059;59.850;10.454;2023-05-14T08:03:42;21.00;99.90
19799;DHT22;10059;59.850;10.454;2023-05-14T08:06:09;21.10;99.90
19799;DHT22;10059;59.850;10.454;2023-05-14T08:08:36;21.10;99.90
19799;DHT22;10059;59.850;10.454;2023-05-14T08:11:03;20.70;99.90
19799;DHT22;10059;59.850;10.454;2023-05-14T08:13:30;20.90;99.90
19799;DHT22;10059;59.850;10.454;2023-05-14T08:15:58;21.00;99.90
19799;DHT22;10059;59.850;10.454;2023-05-14T08:18:25;20.90;99.90
19799;DHT22;10059;59.850;10.454;2023-05-14T08:20:51;20.70;99.90
19799;DHT22;10059;59.850;10.454;2023-05-14T08:23:18;21.20;99.90
19799;DHT22;10059;59.850;10.454;2023-05-14T08:25:45;20.90;99.90
19799;DHT22;10059;59.850;10.454;2023-05-14T08:28:12;21.40;99.90
19799;DHT22;10059;59.850;10.454;2023-05-14T08:30:39;21.60;99.90
19799;DHT22;10059;59.850;10.454;2023-05-14T08:33:07;22.20;99.90
19799;DHT22;10059;59.850;10.454;2023-05-14T08:35:34;22.10;99.90
19799;DHT22;10059;59.850;10.454;2023-05-14T08:38:01;21.40;97.40
19799;DHT22;10059;59.850;10.454;2023-05-14T08:40:28;20.90;97.50
19799;DHT22;10059;59.850;10.454;2023-05-14T08:42:56;21.00;99.20
19799;DHT22;10059;59.850;10.454;2023-05-14T08:45:27;21.50;96.20
19799;DHT22;10059;59.850;10.454;2023-05-14T08:47:56;21.60;95.20
19799;DHT22;10059;59.850;10.454;2023-05-14T08:50:25;21.60;95.10
19799;DHT22;10059;59.850;10.454;2023-05-14T08:52:54;21.60;94.90
19799;DHT22;10059;59.850;10.454;2023-05-14T08:55:21;21.50;97.10
19799;DHT22;10059;59.850;10.454;2023-05-14T08:57:48;21.90;95.20
19799;DHT22;10059;59.850;10.454;2023-05-14T09:00:15;21.90;95.80
19799;DHT22;10059;59.850;10.454;2023-05-14T09:02:43;22.20;93.90
19799;DHT22;10059;59.850;10.454;2023-05-14T09:05:12;22.10;94.30
19799;DHT22;10059;59.850;10.454;2023-05-14T09:07:41;22.50;93.60
19799;DHT22;10059;59.850;10.454;2023-05-14T09:10:09;22.70;93.00
19799;DHT22;10059;59.850;10.454;2023-05-14T09:12:36;23.00;94.40
19799;DHT22;10059;59.850;10.454;2023-05-14T09:15:04;23.30;91.60
19799;DHT22;10059;59.850;10.454;2023-05-14T09:17:32;22.50;91.20
19799;DHT22;10059;59.850;10.454;2023-05-14T09:20:00;22.30;91.10
19799;DHT22;10059;59.850;10.454;2023-05-14T09:22:29;22.60;90.60
19799;DHT22;10059;59.850;10.454;2023-05-14T09:25:06;22.60;91.20
19799;DHT22;10059;59.850;10.454;2023-05-14T09:27:34;22.60;89.20
19799;DHT22;10059;59.850;10.454;2023-05-14T09:30:06;22.50;85.60
19799;DHT22;10059;59.850;10.454;2023-05-14T09:32:37;22.90;88.40
19799;DHT22;10059;59.850;10.454;2023-05-14T09:35:12;23.70;87.80
19799;DHT22;10059;59.850;10.454;2023-05-14T09:37:42;24.40;86.60
19799;DHT22;10059;59.850;10.454;2023-05-14T09:40:11;23.50;81.00
19799;DHT22;10059;59.850;10.454;2023-05-14T09:42:38;22.80;84.50
19799;DHT22;10059;59.850;10.454;2023-05-14T09:45:07;23.70;82.80
19799;DHT22;10059;59.850;10.454;2023-05-14T09:47:34;23.60;81.10
19799;DHT22;10059;59.850;10.454;2023-05-14T09:50:02;23.60;82.50
19799;DHT22;10059;59.850;10.454;2023-05-14T09:52:29;23.90;79.60
19799;DHT22;10059;59.850;10.454;2023-05-14T09:54:56;23.90;81.50
19799;DHT22;10059;59.850;10.454;2023-05-14T09:57:24;24.30;80.70
19799;DHT22;10059;59.850;10.454;2023-05-14T09:59:51;24.20;77.30
19799;DHT22;10059;59.850;10.454;2023-05-14T10:02:22;23.50;76.50
19799;DHT22;10059;59.850;10.454;2023-05-14T10:04:51;23.40;77.50
19799;DHT22;10059;59.850;10.454;2023-05-14T10:07:21;23.20;76.90
19799;DHT22;10059;59.850;10.454;2023-05-14T10:09:52;23.20;77.10
19799;DHT22;10059;59.850;10.454;2023-05-14T10:12:21;23.40;77.80
19799;DHT22;10059;59.850;10.454;2023-05-14T10:14:52;23.70;77.30
19799;DHT22;10059;59.850;10.454;2023-05-14T10:17:21;24.40;77.70
19799;DHT22;10059;59.850;10.454;2023-05-14T10:19:53;24.10;76.70
19799;DHT22;10059;59.850;10.454;2023-05-14T10:22:23;23.20;76.00
19799;DHT22;10059;59.850;10.454;2023-05-14T10:24:53;23.50;77.70
19799;DHT22;10059;59.850;10.454;2023-05-14T10:27:21;24.00;76.60
19799;DHT22;10059;59.850;10.454;2023-05-14T10:29:52;23.60;75.60
19799;DHT22;10059;59.850;10.454;2023-05-14T10:32:21;22.70;76.00
19799;DHT22;10059;59.850;10.454;2023-05-14T10:34:49;23.20;76.90
19799;DHT22;10059;59.850;10.454;2023-05-14T10:37:17;23.50;76.30
19799;DHT22;10059;59.850;10.454;2023-05-14T10:39:47;23.80;75.40
19799;DHT22;10059;59.850;10.454;2023-05-14T10:42:16;24.10;74.40
19799;DHT22;10059;59.850;10.454;2023-05-14T10:44:53;24.10;75.70
19799;DHT22;10059;59.850;10.454;2023-05-14T10:47:22;23.70;73.20
19799;DHT22;10059;59.850;10.454;2023-05-14T10:49:52;24.10;75.10
19799;DHT22;10059;59.850;10.454;2023-05-14T10:52:20;24.50;72.70
19799;DHT22;10059;59.850;10.454;2023-05-14T10:54:51;24.60;73.90
19799;DHT22;10059;59.850;10.454;2023-05-14T10:57:19;23.80;72.10
19799;DHT22;10059;59.850;10.454;2023-05-14T10:59:47;24.00;73.10
19799;DHT22;10059;59.850;10.454;2023-05-14T11:02:25;24.20;73.90
19799;DHT22;10059;59.850;10.454;2023-05-14T11:04:54;24.00;71.30
19799;DHT22;10059;59.850;10.454;2023-05-14T11:07:23;24.30;72.50
19799;DHT22;10059;59.850;10.454;2023-05-14T11:09:51;24.70;72.90
19799;DHT22;10059;59.850;10.454;2023-05-14T11:12:18;24.70;73.60
19799;DHT22;10059;59.850;10.454;2023-05-14T11:14:46;25.10;71.90
19799;DHT22;10059;59.850;10.454;2023-05-14T11:17:14;25.00;70.10
19799;DHT22;10059;59.850;10.454;2023-05-14T11:19:43;24.70;71.00
19799;DHT22;10059;59.850;10.454;2023-05-14T11:22:10;23.80;70.70
19799;DHT22;10059;59.850;10.454;2023-05-14T11:24:39;24.10;71.30
19799;DHT22;10059;59.850;10.454;2023-05-14T11:27:06;24.40;73.40
19799;DHT22;10059;59.850;10.454;2023-05-14T11:29:34;24.40;71.10
19799;DHT22;10059;59.850;10.454;2023-05-14T11:32:01;24.60;70.90
19799;DHT22;10059;59.850;10.454;2023-05-14T11:34:28;23.80;72.30
19799;DHT22;10059;59.850;10.454;2023-05-14T11:36:56;24.60;69.70
19799;DHT22;10059;59.850;10.454;2023-05-14T11:39:23;23.60;71.10
19799;DHT22;10059;59.850;10.454;2023-05-14T11:41:50;23.70;70.10
19799;DHT22;10059;59.850;10.454;2023-05-14T11:44:17;23.60;70.60
19799;DHT22;10059;59.850;10.454;2023-05-14T11:46:53;24.20;72.60
19799;DHT22;10059;59.850;10.454;2023-05-14T11:49:20;24.20;69.90
19799;DHT22;10059;59.850;10.454;2023-05-14T11:51:48;24.10;69.60
19799;DHT22;10059;59.850;10.454;2023-05-14T11:54:16;24.30;69.50
19799;DHT22;10059;59.850;10.454;2023-05-14T11:56:48;25.00;68.50
19799;DHT22;10059;59.850;10.454;2023-05-14T11:59:16;25.80;66.70
19799;DHT22;10059;59.850;10.454;2023-05-14T12:01:43;26.10;67.80
19799;DHT22;10059;59.850;10.454;2023-05-14T12:04:11;25.30;65.00
19799;DHT22;10059;59.850;10.454;2023-05-14T12:06:38;24.00;67.60
19799;DHT22;10059;59.850;10.454;2023-05-14T12:09:05;24.20;65.60
19799;DHT22;10059;59.850;10.454;2023-05-14T12:11:35;25.40;66.60
19799;DHT22;10059;59.850;10.454;2023-05-14T12:14:10;25.20;64.10
19799;DHT22;10059;59.850;10.454;2023-05-14T12:16:39;25.60;66.60
19799;DHT22;10059;59.850;10.454;2023-05-14T12:19:08;25.50;65.20
19799;DHT22;10059;59.850;10.454;2023-05-14T12:21:36;25.40;62.60
19799;DHT22;10059;59.850;10.454;2023-05-14T12:24:04;25.20;61.90
19799;DHT22;10059;59.850;10.454;2023-05-14T12:26:32;25.60;61.40
19799;DHT22;10059;59.850;10.454;2023-05-14T12:29:01;25.50;60.10
19799;DHT22;10059;59.850;10.454;2023-05-14T12:31:29;25.80;60.30
19799;DHT22;10059;59.850;10.454;2023-05-14T12:33:56;24.60;60.20
19799;DHT22;10059;59.850;10.454;2023-05-14T12:36:23;25.10;61.40
19799;DHT22;10059;59.850;10.454;2023-05-14T12:38:58;25.10;61.40
19799;DHT22;10059;59.850;10.454;2023-05-14T12:41:25;25.20;60.00
19799;DHT22;10059;59.850;10.454;2023-05-14T12:43:52;25.60;60.40
19799;DHT22;10059;59.850;10.454;2023-05-14T12:46:20;26.00;59.40
19799;DHT22;10059;59.850;10.454;2023-05-14T12:48:47;25.70;59.90
19799;DHT22;10059;59.850;10.454;2023-05-14T12:51:14;25.00;60.70
19799;DHT22;10059;59.850;10.454;2023-05-14T12:53:41;25.40;62.00
19799;DHT22;10059;59.850;10.454;2023-05-14T12:56:08;25.50;61.20
19799;DHT22;10059;59.850;10.454;2023-05-14T12:58:34;25.50;61.20
19799;DHT22;10059;59.850;10.454;2023-05-14T13:01:01;25.00;62.00
19799;DHT22;10059;59.850;10.454;2023-05-14T13:03:30;26.10;64.40
19799;DHT22;10059;59.850;10.454;2023-05-14T13:05:57;26.20;59.10
19799;DHT22;10059;59.850;10.454;2023-05-14T13:08:24;25.60;60.50
19799;DHT22;10059;59.850;10.454;2023-05-14T13:10:52;25.20;61.20
19799;DHT22;10059;59.850;10.454;2023-05-14T13:13:19;25.40;60.80
19799;DHT22;10059;59.850;10.454;2023-05-14T13:15:46;25.30;60.70
19799;DHT22;10059;59.850;10.454;2023-05-14T13:18:13;24.10;62.70
19799;DHT22;10059;59.850;10.454;2023-05-14T13:20:41;24.40;62.00
19799;DHT22;10059;59.850;10.454;2023-05-14T13:23:08;24.30;62.30
19799;DHT22;10059;59.850;10.454;2023-05-14T13:25:35;25.10;63.00
19799;DHT22;10059;59.850;10.454;2023-05-14T13:28:02;24.90;62.50
19799;DHT22;10059;59.850;10.454;2023-05-14T13:30:29;25.00;61.80
19799;DHT22;10059;59.850;10.454;2023-05-14T13:32:56;24.50;62.00
19799;DHT22;10059;59.850;10.454;2023-05-14T13:35:23;24.10;62.90
19799;DHT22;10059;59.850;10.454;2023-05-14T13:37:51;24.90;63.10
19799;DHT22;10059;59.850;10.454;2023-05-14T13:40:18;25.00;63.60
19799;DHT22;10059;59.850;10.454;2023-05-14T13:42:45;24.70;63.00
19799;DHT22;10059;59.850;10.454;2023-05-14T13:45:12;24.80;63.30
19799;DHT22;10059;59.850;10.454;2023-05-14T13:47:39;25.20;63.00
19799;DHT22;10059;59.850;10.454;2023-05-14T13:50:07;24.90;62.60
19799;DHT22;10059;59.850;10.454;2023-05-14T13:52:33;24.40;62.60
19799;DHT22;10059;59.850;10.454;2023-05-14T13:55:02;24.10;63.60
19799;DHT22;10059;59.850;10.454;2023-05-14T13:57:29;24.30;65.20
19799;DHT22;10059;59.850;10.454;2023-05-14T13:59:55;24.60;63.80
19799;DHT22;10059;59.850;10.454;2023-05-14T14:02:22;24.50;65.10
19799;DHT22;10059;59.850;10.454;2023-05-14T14:04:49;24.30;64.90
19799;DHT22;10059;59.850;10.454;2023-05-14T14:07:16;24.00;65.00
19799;DHT22;10059;59.850;10.454;2023-05-14T14:09:43;24.40;66.80
19799;DHT22;10059;59.850;10.454;2023-05-14T14:12:11;23.90;66.60
19799;DHT22;10059;59.850;10.454;2023-05-14T14:14:38;23.40;66.50
19799;DHT22;10059;59.850;10.454;2023-05-14T14:17:04;23.90;66.00
19799;DHT22;10059;59.850;10.454;2023-05-14T14:19:33;23.70;66.20
19799;DHT22;10059;59.850;10.454;2023-05-14T14:22:00;23.80;65.70
19799;DHT22;10059;59.850;10.454;2023-05-14T14:24:27;24.00;66.40
19799;DHT22;10059;59.850;10.454;2023-05-14T14:26:53;24.40;65.40
19799;DHT22;10059;59.850;10.454;2023-05-14T14:29:22;23.60;64.90
19799;DHT22;10059;59.850;10.454;2023-05-14T14:31:48;23.70;65.70
19799;DHT22;10059;59.850;10.454;2023-05-14T14:34:15;23.80;64.60
19799;DHT22;10059;59.850;10.454;2023-05-14T14:36:42;23.60;64.40
19799;DHT22;10059;59.850;10.454;2023-05-14T14:39:09;23.30;64.60
19799;DHT22;10059;59.850;10.454;2023-05-14T14:41:36;23.80;66.20
19799;DHT22;10059;59.850;10.454;2023-05-14T14:44:03;24.00;64.80
19799;DHT22;10059;59.850;10.454;2023-05-14T14:46:31;24.00;65.60
19799;DHT22;10059;59.850;10.454;2023-05-14T14:48:58;24.10;65.20
19799;DHT22;10059;59.850;10.454;2023-05-14T14:51:25;24.10;65.00
19799;DHT22;10059;59.850;10.454;2023-05-14T14:53:52;23.80;65.70
19799;DHT22;10059;59.850;10.454;2023-05-14T14:56:19;23.40;64.40
19799;DHT22;10059;59.850;10.454;2023-05-14T14:58:46;22.90;65.00
19799;DHT22;10059;59.850;10.454;2023-05-14T15:01:13;23.00;65.50
19799;DHT22;10059;59.850;10.454;2023-05-14T15:03:42;23.10;65.60
19799;DHT22;10059;59.850;10.454;2023-05-14T15:06:10;23.10;65.40
19799;DHT22;10059;59.850;10.454;2023-05-14T15:08:37;23.60;66.60
19799;DHT22;10059;59.850;10.454;2023-05-14T15:11:04;23.90;66.70
19799;DHT22;10059;59.850;10.454;2023-05-14T15:13:31;23.80;65.30
19799;DHT22;10059;59.850;10.454;2023-05-14T15:15:58;23.40;65.90
19799;DHT22;10059;59.850;10.454;2023-05-14T15:18:25;23.60;66.10
19799;DHT22;10059;59.850;10.454;2023-05-14T15:20:55;23.50;65.80
19799;DHT22;10059;59.850;10.454;2023-05-14T15:23:22;23.20;66.20